createdAt,value
2018-10-09T07:10:38.904Z,100.00
2018-10-09T07:13:07.961Z,100.00
2018-10-09T07:15:37.075Z,100.00
2018-10-09T07:18:06.304Z,100.00
2018-10-09T07:20:35.527Z,100.00
2018-10-09T07:23:04.701Z,100.00
2018-10-09T07:25:33.779Z,100.00
2018-10-09T07:28:03.042Z,100.00
2018-10-09T07:30:31.966Z,100.00
2018-10-09T07:33:01.105Z,100.00
2018-10-09T07:35:30.237Z,100.00
2018-10-09T07:37:59.330Z,100.00
2018-10-09T07:40:28.416Z,100.00
2018-10-09T07:42:57.487Z,100.00
2018-10-09T07:45:26.565Z,100.00
2018-10-09T07:47:56.089Z,100.00
2018-10-09T07:50:26.173Z,100.00
2018-10-09T07:52:56.042Z,100.00
2018-10-09T07:55:25.997Z,100.00
2018-10-09T07:57:56.048Z,100.00
2018-10-09T08:00:26.016Z,100.00
2018-10-09T08:02:56.123Z,100.00
2018-10-09T08:05:26.272Z,100.00
2018-10-09T08:07:56.194Z,100.00
2018-10-09T08:10:26.160Z,100.00
2018-10-09T08:12:56.283Z,100.00
2018-10-09T08:15:26.362Z,100.00
2018-10-09T08:17:56.308Z,100.00
2018-10-09T08:20:26.238Z,100.00
2018-10-09T08:22:56.406Z,100.00
2018-10-09T08:25:26.386Z,100.00
2018-10-09T08:27:56.376Z,100.00
2018-10-09T08:30:26.334Z,100.00
2018-10-09T08:32:56.383Z,100.00
2018-10-09T08:35:26.464Z,100.00
2018-10-09T08:37:56.471Z,100.00
2018-10-09T08:40:26.679Z,100.00
2018-10-09T08:42:56.635Z,100.00
2018-10-09T08:45:26.559Z,100.00
2018-10-09T08:47:56.748Z,100.00
2018-10-09T08:50:26.603Z,100.00
2018-10-09T08:52:56.726Z,100.00
2018-10-09T08:55:26.658Z,100.00
2018-10-09T08:57:57.106Z,100.00
2018-10-09T09:00:26.725Z,100.00
2018-10-09T09:02:56.788Z,99.92
2018-10-09T09:05:26.754Z,99.60
2018-10-09T09:07:56.826Z,99.43
2018-10-09T09:10:26.720Z,99.45
2018-10-09T09:12:56.784Z,99.73
2018-10-09T09:15:26.792Z,99.52
2018-10-09T09:17:56.826Z,98.82
2018-10-09T09:20:27.401Z,99.30
2018-10-09T09:22:56.898Z,98.89
2018-10-09T09:25:27.039Z,98.89
2018-10-09T09:27:56.895Z,98.67
2018-10-09T09:30:26.895Z,98.68
2018-10-09T09:32:57.022Z,97.75
2018-10-09T09:35:26.922Z,97.93
2018-10-09T09:37:57.054Z,97.95
2018-10-09T09:40:26.966Z,97.61
2018-10-09T09:42:57.099Z,97.50
2018-10-09T09:45:27.021Z,97.65
2018-10-09T09:47:57.098Z,97.45
2018-10-09T09:50:27.045Z,96.75
2018-10-09T09:52:57.119Z,96.29
2018-10-09T09:55:27.237Z,96.04
2018-10-09T09:57:57.299Z,96.14
2018-10-09T10:00:32.610Z,96.29
2018-10-09T10:03:01.792Z,95.75
2018-10-09T10:05:30.938Z,95.45
2018-10-09T10:08:00.018Z,95.39
2018-10-09T10:10:29.123Z,94.58
2018-10-09T10:12:58.230Z,95.17
2018-10-09T10:15:27.300Z,94.44
2018-10-09T10:17:57.359Z,94.38
2018-10-09T10:20:27.492Z,94.57
2018-10-09T10:22:57.555Z,94.59
2018-10-09T10:25:27.501Z,94.64
2018-10-09T10:27:57.651Z,94.45
2018-10-09T10:30:27.565Z,93.78
2018-10-09T10:32:57.735Z,93.92
2018-10-09T10:35:27.551Z,93.32
2018-10-09T10:37:57.731Z,92.36
2018-10-09T10:40:27.609Z,92.85
2018-10-09T10:42:57.688Z,92.42
2018-10-09T10:45:27.645Z,92.63
2018-10-09T10:47:57.788Z,92.20
2018-10-09T10:50:27.896Z,90.39
2018-10-09T10:52:57.811Z,89.96
2018-10-09T10:55:27.968Z,90.79
2018-10-09T10:57:57.919Z,90.22
2018-10-09T11:00:27.823Z,90.56
2018-10-09T11:02:57.801Z,88.93
2018-10-09T11:20:55.866Z,87.20
2018-10-09T11:23:25.986Z,87.24
2018-10-09T11:25:55.126Z,86.55
2018-10-09T11:28:24.549Z,86.84
2018-10-09T11:30:53.648Z,86.68
2018-10-09T11:33:23.073Z,86.76
2018-10-09T11:35:52.194Z,86.50
2018-10-09T11:38:22.115Z,84.99
2018-10-09T11:40:51.195Z,85.76
2018-10-09T11:43:20.650Z,85.15
2018-10-09T11:45:49.807Z,84.00
2018-10-09T11:48:21.451Z,83.23
2018-10-09T11:50:50.591Z,83.97
2018-10-09T11:53:20.087Z,83.76
2018-10-09T11:55:49.226Z,82.88
2018-10-09T11:58:18.701Z,83.27
2018-10-09T12:00:49.241Z,82.71
2018-10-09T12:03:18.735Z,82.91
2018-10-09T12:05:47.934Z,82.77
2018-10-09T12:08:32.170Z,82.58
2018-10-09T12:11:01.847Z,82.63
2018-10-09T12:13:30.945Z,82.04
2018-10-09T12:16:00.128Z,81.87
2018-10-09T12:18:29.188Z,82.24
2018-10-09T12:20:58.545Z,82.05
2018-10-09T12:28:37.562Z,83.54
2018-10-09T12:31:06.787Z,83.70
2018-10-09T12:33:35.963Z,82.33
2018-10-09T12:36:05.505Z,82.95
2018-10-09T12:38:34.845Z,83.30
2018-10-09T12:41:03.987Z,82.84
2018-10-09T12:43:33.111Z,82.33
2018-10-09T12:46:02.217Z,82.05
2018-10-09T12:48:31.840Z,82.37
2018-10-09T12:51:00.973Z,79.34
2018-10-09T12:53:30.116Z,80.97
2018-10-09T12:55:59.213Z,79.86
2018-10-09T12:58:29.397Z,79.32
2018-10-09T13:00:58.999Z,79.03
2018-10-09T13:03:29.004Z,79.83
2018-10-09T13:05:58.987Z,81.78
2018-10-09T13:13:34.217Z,81.41
2018-10-09T13:16:03.359Z,79.98
2018-10-09T13:18:32.448Z,81.25
2018-10-09T13:21:01.749Z,79.74
2018-10-09T13:23:30.804Z,80.23
2018-10-09T13:25:59.960Z,81.06
2018-10-09T13:28:29.592Z,80.50
2018-10-09T13:30:59.408Z,79.75
2018-10-09T13:33:29.265Z,78.68
2018-10-09T13:35:59.283Z,79.62
2018-10-09T13:53:57.571Z,77.58
2018-10-09T13:56:27.131Z,77.68
2018-10-09T13:58:56.249Z,77.66
2018-10-09T14:01:25.405Z,77.20
2018-10-09T14:03:54.601Z,77.81
2018-10-09T14:06:24.102Z,77.38
2018-10-09T14:08:53.313Z,78.01
2018-10-09T14:11:22.897Z,77.06
2018-10-09T14:13:53.617Z,77.29
2018-10-09T14:16:23.177Z,75.87
2018-10-09T14:18:52.365Z,76.58
2018-10-09T14:21:23.410Z,77.45
2018-10-09T14:23:52.567Z,77.23
2018-10-09T14:26:22.043Z,77.04
2018-10-09T14:28:51.219Z,76.31
2018-10-09T14:31:20.467Z,75.33
2018-10-09T14:33:49.585Z,75.16
2018-10-09T14:49:16.186Z,72.75
2018-10-09T14:51:45.266Z,72.53
2018-10-09T14:54:14.414Z,72.40
2018-10-09T14:56:43.947Z,72.65
2018-10-09T14:59:13.050Z,71.36
2018-10-09T15:01:42.204Z,72.00
2018-10-09T15:04:11.438Z,71.16
2018-10-09T15:06:40.614Z,71.43
2018-10-09T15:09:11.348Z,72.15
2018-10-09T15:11:40.628Z,73.15
2018-10-09T15:14:09.804Z,72.76
2018-10-09T15:16:39.295Z,73.61
2018-10-09T15:19:08.847Z,74.38
2018-10-09T15:21:38.173Z,74.22
2018-10-09T15:24:07.372Z,74.84
2018-10-09T15:26:36.533Z,75.23
2018-10-09T15:29:05.681Z,75.68
2018-10-09T15:31:34.802Z,76.93
2018-10-09T15:34:03.914Z,77.49
2018-10-09T15:36:32.990Z,76.99
2018-10-09T15:39:02.148Z,77.10
2018-10-09T15:41:31.284Z,77.52
2018-10-09T15:44:00.604Z,78.01
2018-10-09T15:51:31.012Z,79.46
2018-10-09T15:54:00.958Z,80.38
2018-10-09T15:56:33.024Z,80.76
2018-10-09T15:59:03.990Z,80.83
2018-10-09T16:01:33.167Z,81.11
2018-10-09T16:04:02.358Z,81.18
2018-10-09T16:06:31.423Z,82.12
2018-10-09T16:09:01.309Z,81.61
2018-10-09T16:11:33.213Z,81.59
2018-10-09T16:14:03.875Z,82.17
2018-10-09T16:16:33.068Z,82.42
2018-10-09T16:19:02.188Z,82.45
2018-10-09T16:21:31.698Z,82.47
2018-10-09T16:24:01.764Z,83.22
2018-10-09T16:52:23.585Z,85.59
2018-10-09T16:54:52.754Z,85.71
2018-10-09T16:57:22.223Z,85.76
2018-10-09T16:59:51.367Z,86.04
2018-10-09T17:02:21.033Z,85.87
2018-10-09T17:04:50.187Z,86.22
2018-10-09T17:07:20.081Z,86.95
2018-10-09T17:09:49.196Z,87.39
2018-10-09T17:12:18.723Z,86.82
2018-10-09T17:14:48.262Z,87.68
2018-10-09T17:17:17.607Z,88.26
2018-10-09T17:19:46.823Z,88.10
2018-10-09T17:22:16.239Z,88.25
2018-10-09T17:24:45.479Z,88.32
2018-10-09T17:27:15.033Z,89.46
2018-10-09T17:29:44.519Z,90.07
2018-10-09T17:32:13.728Z,89.75
2018-10-09T17:34:42.875Z,90.54
2018-10-09T17:37:12.051Z,90.66
2018-10-09T17:39:41.169Z,90.72
2018-10-09T17:42:10.374Z,91.45
2018-10-09T17:44:39.519Z,91.64
2018-10-09T17:47:09.453Z,92.02
2018-10-09T17:49:40.155Z,92.09
2018-10-09T17:52:10.366Z,92.59
2018-10-09T17:54:39.516Z,92.49
2018-10-09T17:57:08.667Z,92.47
2018-10-09T17:59:37.906Z,93.13
2018-10-09T18:02:07.095Z,93.30
2018-10-09T18:04:36.234Z,93.35
2018-10-09T18:07:05.479Z,93.03
2018-10-09T18:09:34.640Z,93.11
2018-10-09T18:12:03.822Z,93.45
2018-10-09T18:14:33.283Z,93.51
2018-10-09T18:17:02.943Z,93.65
2018-10-09T18:19:33.211Z,93.75
2018-10-09T18:22:02.938Z,93.77
2018-10-09T18:40:15.059Z,94.57
2018-10-09T18:42:44.369Z,94.96
2018-10-09T18:45:13.566Z,95.08
2018-10-09T18:47:44.092Z,94.81
2018-10-09T18:50:13.751Z,95.01
2018-10-09T18:52:43.375Z,95.22
2018-10-09T18:55:14.402Z,94.99
2018-10-09T18:57:44.181Z,95.58
2018-10-09T19:00:14.056Z,95.25
2018-10-09T19:02:43.301Z,94.94
2018-10-09T19:05:12.521Z,95.11
2018-10-09T19:07:41.867Z,94.81
2018-10-09T19:10:11.330Z,94.99
2018-10-09T19:12:40.706Z,95.42
2018-10-09T19:15:10.142Z,94.97
2018-10-09T19:17:39.573Z,94.95
2018-10-09T19:20:09.084Z,95.21
2018-10-09T19:22:38.462Z,95.13
2018-10-09T19:25:09.780Z,95.62
2018-10-09T19:27:39.077Z,95.66
2018-10-09T19:30:09.041Z,95.75
2018-10-09T19:32:38.481Z,95.61
2018-10-09T19:35:38.745Z,95.37
2018-10-09T19:38:07.976Z,95.54
2018-10-09T19:40:37.279Z,95.57
2018-10-09T19:43:06.655Z,95.58
2018-10-09T19:45:36.086Z,95.76
2018-10-09T19:48:05.461Z,95.45
2018-10-09T19:50:34.771Z,95.78
2018-10-09T19:53:04.055Z,95.43
2018-10-09T19:55:34.536Z,95.73
2018-10-09T19:58:04.190Z,95.65
2018-10-09T20:00:34.401Z,95.73
2018-10-09T20:06:06.226Z,95.35
2018-10-09T20:08:35.545Z,95.60
2018-10-09T20:11:35.526Z,95.62
2018-10-09T20:14:04.637Z,95.59
2018-10-09T20:16:34.016Z,95.46
2018-10-09T20:19:04.060Z,95.71
2018-10-09T20:26:36.065Z,95.66
2018-10-09T20:29:05.550Z,95.63
2018-10-09T20:31:34.642Z,95.46
2018-10-09T20:34:04.300Z,95.74
2018-10-09T20:36:33.443Z,95.42
2018-10-09T20:39:02.851Z,95.45
2018-10-09T20:41:32.638Z,96.05
2018-10-09T20:44:01.757Z,95.89
2018-10-09T20:46:30.974Z,95.90
2018-10-09T20:49:00.106Z,96.07
2018-10-09T20:51:29.615Z,95.79
2018-10-09T20:53:58.707Z,95.93
2018-10-09T20:56:27.895Z,96.01
2018-10-09T20:58:57.006Z,95.89
2018-10-09T21:01:26.501Z,96.30
2018-10-09T21:03:55.709Z,96.34
2018-10-09T21:06:25.237Z,96.37
2018-10-09T21:08:54.337Z,96.16
2018-10-09T21:11:23.790Z,96.22
2018-10-09T21:13:52.902Z,96.53
2018-10-09T21:16:22.445Z,96.41
2018-10-09T21:18:51.567Z,96.49
2018-10-09T21:21:21.111Z,96.54
2018-10-09T21:23:50.230Z,96.24
2018-10-09T21:26:19.617Z,96.74
2018-10-09T21:28:48.759Z,96.48
2018-10-09T21:31:18.244Z,96.78
2018-10-09T21:33:47.439Z,96.59
2018-10-09T21:36:16.537Z,96.85
2018-10-09T21:38:46.015Z,96.59
2018-10-09T21:41:15.126Z,97.17
2018-10-09T21:43:44.237Z,96.57
2018-10-09T21:46:13.403Z,96.33
2018-10-09T21:48:42.507Z,96.75
2018-10-09T21:51:11.623Z,96.40
2018-10-09T21:53:40.722Z,96.17
2018-10-09T21:56:09.939Z,96.43
2018-10-09T21:58:39.110Z,96.32
2018-10-09T22:01:09.223Z,96.28
2018-10-09T22:03:38.502Z,96.33
2018-10-09T22:06:08.072Z,96.10
2018-10-09T22:08:37.205Z,96.65
2018-10-09T22:11:06.330Z,96.28
2018-10-09T22:29:16.025Z,96.17
2018-10-09T22:31:45.156Z,96.45
2018-10-09T22:34:14.302Z,96.35
2018-10-09T22:36:43.394Z,95.88
2018-10-09T22:39:12.478Z,96.06
2018-10-09T22:41:41.573Z,95.87
2018-10-09T22:44:10.744Z,95.91
2018-10-09T22:46:39.851Z,95.93
2018-10-09T22:49:09.036Z,95.93
2018-10-09T22:51:38.143Z,95.97
2018-10-09T22:54:07.260Z,96.11
2018-10-09T22:56:36.773Z,96.35
2018-10-09T22:59:06.814Z,96.45
2018-10-09T23:06:37.900Z,95.83
2018-10-09T23:09:09.454Z,95.76
2018-10-09T23:11:38.676Z,95.64
2018-10-09T23:14:07.814Z,95.97
2018-10-09T23:16:37.317Z,95.78
2018-10-09T23:19:07.072Z,95.56
2018-10-09T23:26:42.503Z,95.59
2018-10-09T23:29:11.589Z,95.90
2018-10-09T23:31:40.668Z,96.20
2018-10-09T23:34:09.882Z,96.05
2018-10-09T23:36:38.957Z,96.43
2018-10-09T23:39:09.353Z,96.96
2018-10-09T23:41:38.425Z,96.53
2018-10-09T23:44:07.553Z,96.66
2018-10-09T23:46:37.235Z,96.71
2018-10-09T23:49:07.294Z,96.43
2018-10-09T23:51:37.209Z,96.25
2018-10-09T23:54:07.390Z,96.39
2018-10-09T23:56:37.358Z,96.39
2018-10-09T23:59:07.673Z,96.20
